sensor_id;sensor_type;location;lat;lon;timestamp;temperature;humidity
9425;DHT22;17139;52.140;11.636;2023-12-29T00:02:11;7.20;62.70
9425;DHT22;17139;52.140;11.636;2023-12-29T00:04:39;7.20;62.60
9425;DHT22;17139;52.140;11.636;2023-12-29T00:07:08;7.20;62.60
9425;DHT22;17139;52.140;11.636;2023-12-29T00:09:35;7.20;62.50
9425;DHT22;17139;52.140;11.636;2023-12-29T00:12:06;7.20;62.50
9425;DHT22;17139;52.140;11.636;2023-12-29T00:14:36;7.20;62.50
9425;DHT22;17139;52.140;11.636;2023-12-29T00:17:03;7.20;62.70
9425;DHT22;17139;52.140;11.636;2023-12-29T00:19:31;7.20;62.70
9425;DHT22;17139;52.140;11.636;2023-12-29T00:21:59;7.20;62.80
9425;DHT22;17139;52.140;11.636;2023-12-29T00:24:28;7.20;63.10
9425;DHT22;17139;52.140;11.636;2023-12-29T00:26:57;7.20;62.70
9425;DHT22;17139;52.140;11.636;2023-12-29T00:29:24;7.20;62.70
9425;DHT22;17139;52.140;11.636;2023-12-29T00:31:53;7.20;62.70
9425;DHT22;17139;52.140;11.636;2023-12-29T00:34:20;7.10;62.70
9425;DHT22;17139;52.140;11.636;2023-12-29T00:36:48;7.20;62.90
9425;DHT22;17139;52.140;11.636;2023-12-29T00:39:17;7.10;62.90
9425;DHT22;17139;52.140;11.636;2023-12-29T00:41:44;7.10;62.80
9425;DHT22;17139;52.140;11.636;2023-12-29T00:44:11;7.90;60.60
9425;DHT22;17139;52.140;11.636;2023-12-29T00:46:38;7.60;60.90
9425;DHT22;17139;52.140;11.636;2023-12-29T00:49:05;7.40;61.60
9425;DHT22;17139;52.140;11.636;2023-12-29T00:51:32;8.10;59.80
9425;DHT22;17139;52.140;11.636;2023-12-29T00:53:59;7.80;60.40
9425;DHT22;17139;52.140;11.636;2023-12-29T00:56:27;7.50;61.20
9425;DHT22;17139;52.140;11.636;2023-12-29T00:58:54;7.30;62.50
9425;DHT22;17139;52.140;11.636;2023-12-29T01:01:21;7.30;62.30
9425;DHT22;17139;52.140;11.636;2023-12-29T01:03:48;7.20;62.50
9425;DHT22;17139;52.140;11.636;2023-12-29T01:06:15;7.10;62.40
9425;DHT22;17139;52.140;11.636;2023-12-29T01:08:42;7.10;62.60
9425;DHT22;17139;52.140;11.636;2023-12-29T01:11:09;7.10;62.60
9425;DHT22;17139;52.140;11.636;2023-12-29T01:13:38;7.10;62.60
9425;DHT22;17139;52.140;11.636;2023-12-29T01:16:05;7.10;62.60
9425;DHT22;17139;52.140;11.636;2023-12-29T01:18:32;7.10;62.60
9425;DHT22;17139;52.140;11.636;2023-12-29T01:20:59;7.10;62.60
9425;DHT22;17139;52.140;11.636;2023-12-29T01:23:26;7.50;61.50
9425;DHT22;17139;52.140;11.636;2023-12-29T01:25:53;7.40;61.50
9425;DHT22;17139;52.140;11.636;2023-12-29T01:28:20;7.30;62.00
9425;DHT22;17139;52.140;11.636;2023-12-29T01:30:48;7.60;61.30
9425;DHT22;17139;52.140;11.636;2023-12-29T01:33:15;7.50;61.20
9425;DHT22;17139;52.140;11.636;2023-12-29T01:35:42;7.30;61.70
9425;DHT22;17139;52.140;11.636;2023-12-29T01:38:09;7.30;62.20
9425;DHT22;17139;52.140;11.636;2023-12-29T01:40:43;7.30;62.40
9425;DHT22;17139;52.140;11.636;2023-12-29T01:43:10;7.30;62.40
9425;DHT22;17139;52.140;11.636;2023-12-29T01:45:37;7.30;62.40
9425;DHT22;17139;52.140;11.636;2023-12-29T01:48:07;7.30;62.40
9425;DHT22;17139;52.140;11.636;2023-12-29T01:50:35;7.30;62.40
9425;DHT22;17139;52.140;11.636;2023-12-29T01:53:04;7.20;62.50
9425;DHT22;17139;52.140;11.636;2023-12-29T01:55:32;7.20;62.60
9425;DHT22;17139;52.140;11.636;2023-12-29T01:58:01;7.20;62.50
9425;DHT22;17139;52.140;11.636;2023-12-29T02:00:28;7.10;62.60
9425;DHT22;17139;52.140;11.636;2023-12-29T02:02:57;7.00;62.50
9425;DHT22;17139;52.140;11.636;2023-12-29T02:05:26;7.80;60.40
9425;DHT22;17139;52.140;11.636;2023-12-29T02:07:56;7.60;60.80
9425;DHT22;17139;52.140;11.636;2023-12-29T02:10:24;7.30;61.40
9425;DHT22;17139;52.140;11.636;2023-12-29T02:12:51;7.90;59.70
9425;DHT22;17139;52.140;11.636;2023-12-29T02:15:19;7.60;60.30
9425;DHT22;17139;52.140;11.636;2023-12-29T02:17:52;7.40;61.10
9425;DHT22;17139;52.140;11.636;2023-12-29T02:20:23;7.30;61.80
9425;DHT22;17139;52.140;11.636;2023-12-29T02:22:52;7.20;62.20
9425;DHT22;17139;52.140;11.636;2023-12-29T02:25:20;7.10;62.20
9425;DHT22;17139;52.140;11.636;2023-12-29T02:27:52;7.20;62.40
9425;DHT22;17139;52.140;11.636;2023-12-29T02:30:28;7.20;62.30
9425;DHT22;17139;52.140;11.636;2023-12-29T02:33:00;7.20;62.30
9425;DHT22;17139;52.140;11.636;2023-12-29T02:35:28;7.10;62.30
9425;DHT22;17139;52.140;11.636;2023-12-29T02:37:56;7.00;62.30
9425;DHT22;17139;52.140;11.636;2023-12-29T02:40:25;7.00;62.30
9425;DHT22;17139;52.140;11.636;2023-12-29T02:42:52;7.00;62.50
9425;DHT22;17139;52.140;11.636;2023-12-29T02:45:19;7.20;62.00
9425;DHT22;17139;52.140;11.636;2023-12-29T02:47:47;7.20;61.80
9425;DHT22;17139;52.140;11.636;2023-12-29T02:50:15;7.10;62.00
9425;DHT22;17139;52.140;11.636;2023-12-29T02:52:42;7.60;61.10
9425;DHT22;17139;52.140;11.636;2023-12-29T02:55:09;7.50;61.20
9425;DHT22;17139;52.140;11.636;2023-12-29T02:57:37;7.40;61.60
9425;DHT22;17139;52.140;11.636;2023-12-29T03:00:05;7.40;61.80
9425;DHT22;17139;52.140;11.636;2023-12-29T03:02:33;7.40;62.00
9425;DHT22;17139;52.140;11.636;2023-12-29T03:05:00;7.40;62.00
9425;DHT22;17139;52.140;11.636;2023-12-29T03:07:27;7.40;62.00
9425;DHT22;17139;52.140;11.636;2023-12-29T03:09:54;7.40;62.00
9425;DHT22;17139;52.140;11.636;2023-12-29T03:12:22;7.40;62.10
9425;DHT22;17139;52.140;11.636;2023-12-29T03:14:50;7.40;62.20
9425;DHT22;17139;52.140;11.636;2023-12-29T03:17:17;7.30;62.20
9425;DHT22;17139;52.140;11.636;2023-12-29T03:19:44;7.30;62.30
9425;DHT22;17139;52.140;11.636;2023-12-29T03:22:11;7.30;62.50
9425;DHT22;17139;52.140;11.636;2023-12-29T03:24:40;7.30;62.60
9425;DHT22;17139;52.140;11.636;2023-12-29T03:27:08;8.30;60.00
9425;DHT22;17139;52.140;11.636;2023-12-29T03:29:35;8.10;60.40
9425;DHT22;17139;52.140;11.636;2023-12-29T03:32:04;7.90;60.90
9425;DHT22;17139;52.140;11.636;2023-12-29T03:34:32;8.60;58.90
9425;DHT22;17139;52.140;11.636;2023-12-29T03:37:00;8.30;59.60
9425;DHT22;17139;52.140;11.636;2023-12-29T03:39:27;8.00;60.50
9425;DHT22;17139;52.140;11.636;2023-12-29T03:41:55;7.80;61.20
9425;DHT22;17139;52.140;11.636;2023-12-29T03:44:22;7.60;61.40
9425;DHT22;17139;52.140;11.636;2023-12-29T03:46:49;7.60;61.70
9425;DHT22;17139;52.140;11.636;2023-12-29T03:49:18;7.60;62.00
9425;DHT22;17139;52.140;11.636;2023-12-29T03:51:45;7.60;62.10
9425;DHT22;17139;52.140;11.636;2023-12-29T03:54:12;7.60;62.10
9425;DHT22;17139;52.140;11.636;2023-12-29T03:56:39;7.60;62.10
9425;DHT22;17139;52.140;11.636;2023-12-29T03:59:06;7.60;62.00
9425;DHT22;17139;52.140;11.636;2023-12-29T04:01:34;7.60;62.00
9425;DHT22;17139;52.140;11.636;2023-12-29T04:04:01;7.60;62.10
9425;DHT22;17139;52.140;11.636;2023-12-29T04:06:29;7.50;62.00
9425;DHT22;17139;52.140;11.636;2023-12-29T04:08:57;7.60;62.20
9425;DHT22;17139;52.140;11.636;2023-12-29T04:11:24;7.50;62.20
9425;DHT22;17139;52.140;11.636;2023-12-29T04:13:51;7.50;62.30
9425;DHT22;17139;52.140;11.636;2023-12-29T04:16:18;7.50;62.30
9425;DHT22;17139;52.140;11.636;2023-12-29T04:18:45;7.50;62.30
9425;DHT22;17139;52.140;11.636;2023-12-29T04:21:13;7.40;62.40
9425;DHT22;17139;52.140;11.636;2023-12-29T04:23:42;7.30;62.60
9425;DHT22;17139;52.140;11.636;2023-12-29T04:26:09;7.40;62.70
9425;DHT22;17139;52.140;11.636;2023-12-29T04:28:37;7.40;62.70
9425;DHT22;17139;52.140;11.636;2023-12-29T04:31:04;7.30;62.60
9425;DHT22;17139;52.140;11.636;2023-12-29T04:33:33;7.30;62.60
9425;DHT22;17139;52.140;11.636;2023-12-29T04:36:00;7.20;62.70
9425;DHT22;17139;52.140;11.636;2023-12-29T04:38:27;7.10;62.80
9425;DHT22;17139;52.140;11.636;2023-12-29T04:40:56;7.10;63.00
9425;DHT22;17139;52.140;11.636;2023-12-29T04:43:23;7.00;63.00
9425;DHT22;17139;52.140;11.636;2023-12-29T04:45:50;7.00;63.20
9425;DHT22;17139;52.140;11.636;2023-12-29T04:48:17;7.20;62.90
9425;DHT22;17139;52.140;11.636;2023-12-29T04:50:44;7.10;62.50
9425;DHT22;17139;52.140;11.636;2023-12-29T04:53:11;7.00;62.90
9425;DHT22;17139;52.140;11.636;2023-12-29T04:55:38;7.80;61.50
9425;DHT22;17139;52.140;11.636;2023-12-29T04:58:06;7.60;61.30
9425;DHT22;17139;52.140;11.636;2023-12-29T05:00:33;7.40;61.90
9425;DHT22;17139;52.140;11.636;2023-12-29T05:03:00;7.30;62.30
9425;DHT22;17139;52.140;11.636;2023-12-29T05:05:27;7.30;62.60
9425;DHT22;17139;52.140;11.636;2023-12-29T05:07:54;7.30;62.60
9425;DHT22;17139;52.140;11.636;2023-12-29T05:10:21;7.30;62.60
9425;DHT22;17139;52.140;11.636;2023-12-29T05:12:48;7.30;62.60
9425;DHT22;17139;52.140;11.636;2023-12-29T05:15:16;7.40;62.70
9425;DHT22;17139;52.140;11.636;2023-12-29T05:17:43;7.40;62.70
9425;DHT22;17139;52.140;11.636;2023-12-29T05:20:11;7.50;62.80
9425;DHT22;17139;52.140;11.636;2023-12-29T05:22:38;7.50;62.70
9425;DHT22;17139;52.140;11.636;2023-12-29T05:25:06;7.50;62.60
9425;DHT22;17139;52.140;11.636;2023-12-29T05:27:32;8.40;60.80
9425;DHT22;17139;52.140;11.636;2023-12-29T05:29:59;8.10;60.90
9425;DHT22;17139;52.140;11.636;2023-12-29T05:32:27;7.90;61.60
9425;DHT22;17139;52.140;11.636;2023-12-29T05:34:54;8.60;60.20
9425;DHT22;17139;52.140;11.636;2023-12-29T05:37:21;8.20;60.60
9425;DHT22;17139;52.140;11.636;2023-12-29T05:39:49;8.00;61.40
9425;DHT22;17139;52.140;11.636;2023-12-29T05:42:16;7.80;61.80
9425;DHT22;17139;52.140;11.636;2023-12-29T05:44:43;7.70;62.20
9425;DHT22;17139;52.140;11.636;2023-12-29T05:47:10;7.60;62.50
9425;DHT22;17139;52.140;11.636;2023-12-29T05:49:38;7.60;62.60
9425;DHT22;17139;52.140;11.636;2023-12-29T05:52:05;7.50;62.70
9425;DHT22;17139;52.140;11.636;2023-12-29T05:54:33;7.50;62.90
9425;DHT22;17139;52.140;11.636;2023-12-29T05:57:00;7.40;62.70
9425;DHT22;17139;52.140;11.636;2023-12-29T05:59:28;7.40;62.80
9425;DHT22;17139;52.140;11.636;2023-12-29T06:01:55;7.40;62.80
9425;DHT22;17139;52.140;11.636;2023-12-29T06:04:22;7.40;62.90
9425;DHT22;17139;52.140;11.636;2023-12-29T06:06:50;8.00;61.70
9425;DHT22;17139;52.140;11.636;2023-12-29T06:09:18;7.80;61.50
9425;DHT22;17139;52.140;11.636;2023-12-29T06:11:45;7.70;62.10
9425;DHT22;17139;52.140;11.636;2023-12-29T06:14:12;8.10;61.30
9425;DHT22;17139;52.140;11.636;2023-12-29T06:16:39;8.00;61.40
9425;DHT22;17139;52.140;11.636;2023-12-29T06:19:06;7.80;61.90
9425;DHT22;17139;52.140;11.636;2023-12-29T06:21:33;7.70;62.20
9425;DHT22;17139;52.140;11.636;2023-12-29T06:24:02;7.60;62.50
9425;DHT22;17139;52.140;11.636;2023-12-29T06:26:29;7.60;62.60
9425;DHT22;17139;52.140;11.636;2023-12-29T06:28:59;7.50;62.70
9425;DHT22;17139;52.140;11.636;2023-12-29T06:31:26;7.50;62.80
9425;DHT22;17139;52.140;11.636;2023-12-29T06:33:53;7.50;62.80
9425;DHT22;17139;52.140;11.636;2023-12-29T06:36:20;7.50;62.80
9425;DHT22;17139;52.140;11.636;2023-12-29T06:38:47;7.50;62.80
9425;DHT22;17139;52.140;11.636;2023-12-29T06:41:17;7.50;62.80
9425;DHT22;17139;52.140;11.636;2023-12-29T06:43:44;7.50;62.80
9425;DHT22;17139;52.140;11.636;2023-12-29T06:46:11;8.40;61.30
9425;DHT22;17139;52.140;11.636;2023-12-29T06:48:39;8.20;61.30
9425;DHT22;17139;52.140;11.636;2023-12-29T06:51:06;8.30;61.20
9425;DHT22;17139;52.140;11.636;2023-12-29T06:53:35;8.10;61.30
9425;DHT22;17139;52.140;11.636;2023-12-29T06:56:03;8.00;61.90
9425;DHT22;17139;52.140;11.636;2023-12-29T06:58:32;7.90;62.30
9425;DHT22;17139;52.140;11.636;2023-12-29T07:00:59;7.90;62.50
9425;DHT22;17139;52.140;11.636;2023-12-29T07:03:26;7.90;62.60
9425;DHT22;17139;52.140;11.636;2023-12-29T07:05:53;7.90;62.50
9425;DHT22;17139;52.140;11.636;2023-12-29T07:08:20;7.80;62.50
9425;DHT22;17139;52.140;11.636;2023-12-29T07:10:47;7.80;62.80
9425;DHT22;17139;52.140;11.636;2023-12-29T07:13:15;7.80;62.90
9425;DHT22;17139;52.140;11.636;2023-12-29T07:15:44;7.70;62.90
9425;DHT22;17139;52.140;11.636;2023-12-29T07:18:11;7.60;62.90
9425;DHT22;17139;52.140;11.636;2023-12-29T07:20:38;7.90;62.70
9425;DHT22;17139;52.140;11.636;2023-12-29T07:23:05;7.90;62.40
9425;DHT22;17139;52.140;11.636;2023-12-29T07:25:32;7.90;62.60
9425;DHT22;17139;52.140;11.636;2023-12-29T07:27:59;8.60;61.00
9425;DHT22;17139;52.140;11.636;2023-12-29T07:30:26;8.40;61.10
9425;DHT22;17139;52.140;11.636;2023-12-29T07:32:55;8.20;61.70
9425;DHT22;17139;52.140;11.636;2023-12-29T07:35:22;8.20;62.20
9425;DHT22;17139;52.140;11.636;2023-12-29T07:37:49;8.10;62.40
9425;DHT22;17139;52.140;11.636;2023-12-29T07:40:16;8.00;62.60
9425;DHT22;17139;52.140;11.636;2023-12-29T07:42:45;8.00;62.70
9425;DHT22;17139;52.140;11.636;2023-12-29T07:45:16;8.00;62.80
9425;DHT22;17139;52.140;11.636;2023-12-29T07:47:43;8.00;62.80
9425;DHT22;17139;52.140;11.636;2023-12-29T07:50:14;7.90;62.80
9425;DHT22;17139;52.140;11.636;2023-12-29T07:52:42;7.90;62.80
9425;DHT22;17139;52.140;11.636;2023-12-29T07:55:09;7.80;63.00
9425;DHT22;17139;52.140;11.636;2023-12-29T07:57:36;7.80;63.20
9425;DHT22;17139;52.140;11.636;2023-12-29T08:00:04;7.70;63.10
9425;DHT22;17139;52.140;11.636;2023-12-29T08:02:32;7.60;63.20
9425;DHT22;17139;52.140;11.636;2023-12-29T08:04:59;8.50;61.30
9425;DHT22;17139;52.140;11.636;2023-12-29T08:07:27;8.20;61.30
9425;DHT22;17139;52.140;11.636;2023-12-29T08:09:54;8.00;62.70
9425;DHT22;17139;52.140;11.636;2023-12-29T08:12:21;7.80;62.40
9425;DHT22;17139;52.140;11.636;2023-12-29T08:14:51;7.80;62.80
9425;DHT22;17139;52.140;11.636;2023-12-29T08:17:18;7.80;62.90
9425;DHT22;17139;52.140;11.636;2023-12-29T08:19:45;7.70;62.90
9425;DHT22;17139;52.140;11.636;2023-12-29T08:22:12;7.70;63.00
9425;DHT22;17139;52.140;11.636;2023-12-29T08:24:41;7.70;63.00
9425;DHT22;17139;52.140;11.636;2023-12-29T08:27:09;7.70;63.00
9425;DHT22;17139;52.140;11.636;2023-12-29T08:29:36;7.70;63.00
9425;DHT22;17139;52.140;11.636;2023-12-29T08:32:04;7.70;63.00
9425;DHT22;17139;52.140;11.636;2023-12-29T08:34:31;8.00;62.40
9425;DHT22;17139;52.140;11.636;2023-12-29T08:36:59;7.90;62.20
9425;DHT22;17139;52.140;11.636;2023-12-29T08:39:26;7.90;62.50
9425;DHT22;17139;52.140;11.636;2023-12-29T08:41:55;8.60;60.50
9425;DHT22;17139;52.140;11.636;2023-12-29T08:44:22;8.40;60.90
9425;DHT22;17139;52.140;11.636;2023-12-29T08:46:50;8.20;61.60
9425;DHT22;17139;52.140;11.636;2023-12-29T08:49:17;8.10;61.90
9425;DHT22;17139;52.140;11.636;2023-12-29T08:51:44;8.10;62.30
9425;DHT22;17139;52.140;11.636;2023-12-29T08:54:11;8.00;62.30
9425;DHT22;17139;52.140;11.636;2023-12-29T08:56:38;8.10;62.50
9425;DHT22;17139;52.140;11.636;2023-12-29T08:59:06;8.10;62.50
9425;DHT22;17139;52.140;11.636;2023-12-29T09:01:33;8.20;62.50
9425;DHT22;17139;52.140;11.636;2023-12-29T09:04:00;8.20;62.60
9425;DHT22;17139;52.140;11.636;2023-12-29T09:06:27;9.00;60.00
9425;DHT22;17139;52.140;11.636;2023-12-29T09:08:54;8.90;60.40
9425;DHT22;17139;52.140;11.636;2023-12-29T09:11:21;8.90;60.60
9425;DHT22;17139;52.140;11.636;2023-12-29T09:13:48;8.90;61.00
9425;DHT22;17139;52.140;11.636;2023-12-29T09:16:16;8.80;61.40
9425;DHT22;17139;52.140;11.636;2023-12-29T09:18:43;8.80;61.60
9425;DHT22;17139;52.140;11.636;2023-12-29T09:21:10;8.80;61.70
9425;DHT22;17139;52.140;11.636;2023-12-29T09:23:37;8.80;61.80
9425;DHT22;17139;52.140;11.636;2023-12-29T09:26:05;9.50;59.00
9425;DHT22;17139;52.140;11.636;2023-12-29T09:28:32;9.30;59.70
9425;DHT22;17139;52.140;11.636;2023-12-29T09:30:59;9.10;60.50
9425;DHT22;17139;52.140;11.636;2023-12-29T09:33:28;9.00;61.10
9425;DHT22;17139;52.140;11.636;2023-12-29T09:35:55;8.90;61.30
9425;DHT22;17139;52.140;11.636;2023-12-29T09:38:22;8.90;61.90
9425;DHT22;17139;52.140;11.636;2023-12-29T09:40:51;8.80;61.50
9425;DHT22;17139;52.140;11.636;2023-12-29T09:43:19;8.80;61.50
9425;DHT22;17139;52.140;11.636;2023-12-29T09:45:47;9.10;60.40
9425;DHT22;17139;52.140;11.636;2023-12-29T09:48:20;9.10;60.40
9425;DHT22;17139;52.140;11.636;2023-12-29T09:50:54;9.10;60.90
9425;DHT22;17139;52.140;11.636;2023-12-29T09:53:21;9.00;61.10
9425;DHT22;17139;52.140;11.636;2023-12-29T09:55:49;9.70;58.80
9425;DHT22;17139;52.140;11.636;2023-12-29T09:58:17;9.50;59.50
9425;DHT22;17139;52.140;11.636;2023-12-29T10:00:47;9.80;58.80
9425;DHT22;17139;52.140;11.636;2023-12-29T10:03:16;9.60;59.50
9425;DHT22;17139;52.140;11.636;2023-12-29T10:05:43;9.40;60.00
9425;DHT22;17139;52.140;11.636;2023-12-29T10:08:13;9.40;60.50
9425;DHT22;17139;52.140;11.636;2023-12-29T10:10:42;9.30;60.70
9425;DHT22;17139;52.140;11.636;2023-12-29T10:13:10;10.00;58.30
9425;DHT22;17139;52.140;11.636;2023-12-29T10:15:45;10.40;57.20
9425;DHT22;17139;52.140;11.636;2023-12-29T10:18:20;10.00;58.50
9425;DHT22;17139;52.140;11.636;2023-12-29T10:20:55;9.70;59.50
9425;DHT22;17139;52.140;11.636;2023-12-29T10:23:31;9.60;60.00
9425;DHT22;17139;52.140;11.636;2023-12-29T10:25:59;9.50;59.90
9425;DHT22;17139;52.140;11.636;2023-12-29T10:28:26;9.50;60.20
9425;DHT22;17139;52.140;11.636;2023-12-29T10:30:52;9.60;60.50
9425;DHT22;17139;52.140;11.636;2023-12-29T10:33:22;10.00;59.20
9425;DHT22;17139;52.140;11.636;2023-12-29T10:36:00;9.90;59.50
9425;DHT22;17139;52.140;11.636;2023-12-29T10:38:30;9.90;59.60
9425;DHT22;17139;52.140;11.636;2023-12-29T10:41:11;9.80;59.90
9425;DHT22;17139;52.140;11.636;2023-12-29T10:43:38;9.80;59.60
9425;DHT22;17139;52.140;11.636;2023-12-29T10:46:06;9.80;60.10
9425;DHT22;17139;52.140;11.636;2023-12-29T10:48:34;10.40;57.40
9425;DHT22;17139;52.140;11.636;2023-12-29T10:51:02;10.20;58.20
9425;DHT22;17139;52.140;11.636;2023-12-29T10:53:31;10.10;59.00
9425;DHT22;17139;52.140;11.636;2023-12-29T10:55:59;10.00;59.30
9425;DHT22;17139;52.140;11.636;2023-12-29T10:58:26;9.90;59.50
9425;DHT22;17139;52.140;11.636;2023-12-29T11:00:55;9.90;59.70
9425;DHT22;17139;52.140;11.636;2023-12-29T11:03:22;9.90;60.00
9425;DHT22;17139;52.140;11.636;2023-12-29T11:05:49;9.80;60.10
9425;DHT22;17139;52.140;11.636;2023-12-29T11:08:19;9.80;60.20
9425;DHT22;17139;52.140;11.636;2023-12-29T11:10:48;9.80;60.20
9425;DHT22;17139;52.140;11.636;2023-12-29T11:13:16;9.80;60.20
9425;DHT22;17139;52.140;11.636;2023-12-29T11:15:44;9.80;60.40
9425;DHT22;17139;52.140;11.636;2023-12-29T11:18:14;9.80;60.30
9425;DHT22;17139;52.140;11.636;2023-12-29T11:20:42;9.70;60.60
9425;DHT22;17139;52.140;11.636;2023-12-29T11:23:10;10.00;59.70
9425;DHT22;17139;52.140;11.636;2023-12-29T11:25:39;9.90;59.90
9425;DHT22;17139;52.140;11.636;2023-12-29T11:28:09;9.90;60.30
9425;DHT22;17139;52.140;11.636;2023-12-29T11:30:37;9.80;60.60
9425;DHT22;17139;52.140;11.636;2023-12-29T11:33:09;9.80;60.90
9425;DHT22;17139;52.140;11.636;2023-12-29T11:35:41;9.80;61.70
9425;DHT22;17139;52.140;11.636;2023-12-29T11:38:26;9.70;61.10
9425;DHT22;17139;52.140;11.636;2023-12-29T11:41:02;9.70;61.10
9425;DHT22;17139;52.140;11.636;2023-12-29T11:43:33;9.60;61.30
9425;DHT22;17139;52.140;11.636;2023-12-29T11:46:01;9.60;61.40
9425;DHT22;17139;52.140;11.636;2023-12-29T11:48:56;9.60;61.40
9425;DHT22;17139;52.140;11.636;2023-12-29T11:51:30;9.70;61.30
9425;DHT22;17139;52.140;11.636;2023-12-29T11:53:58;10.50;59.50
9425;DHT22;17139;52.140;11.636;2023-12-29T11:56:30;10.20;59.90
9425;DHT22;17139;52.140;11.636;2023-12-29T11:59:18;10.30;59.90
9425;DHT22;17139;52.140;11.636;2023-12-29T12:01:47;10.10;60.40
9425;DHT22;17139;52.140;11.636;2023-12-29T12:04:36;10.00;60.80
9425;DHT22;17139;52.140;11.636;2023-12-29T12:07:05;10.00;61.00
9425;DHT22;17139;52.140;11.636;2023-12-29T12:09:33;9.90;61.30
9425;DHT22;17139;52.140;11.636;2023-12-29T12:12:01;9.90;61.30
9425;DHT22;17139;52.140;11.636;2023-12-29T12:14:50;9.90;61.40
9425;DHT22;17139;52.140;11.636;2023-12-29T12:17:35;9.90;61.20
9425;DHT22;17139;52.140;11.636;2023-12-29T12:20:04;9.90;61.30
9425;DHT22;17139;52.140;11.636;2023-12-29T12:22:35;9.90;61.30
9425;DHT22;17139;52.140;11.636;2023-12-29T12:25:03;9.90;61.40
9425;DHT22;17139;52.140;11.636;2023-12-29T12:27:30;9.90;61.40
9425;DHT22;17139;52.140;11.636;2023-12-29T12:29:59;10.60;59.00
9425;DHT22;17139;52.140;11.636;2023-12-29T12:32:27;10.40;59.60
9425;DHT22;17139;52.140;11.636;2023-12-29T12:34:55;10.60;59.20
9425;DHT22;17139;52.140;11.636;2023-12-29T12:37:23;10.40;59.70
9425;DHT22;17139;52.140;11.636;2023-12-29T12:39:50;10.10;60.30
9425;DHT22;17139;52.140;11.636;2023-12-29T12:42:22;10.00;61.00
9425;DHT22;17139;52.140;11.636;2023-12-29T12:44:54;9.90;61.10
9425;DHT22;17139;52.140;11.636;2023-12-29T12:47:32;9.80;61.20
9425;DHT22;17139;52.140;11.636;2023-12-29T12:50:00;9.80;61.40
9425;DHT22;17139;52.140;11.636;2023-12-29T12:52:30;9.70;61.40
9425;DHT22;17139;52.140;11.636;2023-12-29T12:54:58;9.80;61.50
9425;DHT22;17139;52.140;11.636;2023-12-29T12:57:25;9.80;61.60
9425;DHT22;17139;52.140;11.636;2023-12-29T12:59:53;9.80;61.60
9425;DHT22;17139;52.140;11.636;2023-12-29T13:02:21;9.70;61.50
9425;DHT22;17139;52.140;11.636;2023-12-29T13:04:49;10.20;60.60
9425;DHT22;17139;52.140;11.636;2023-12-29T13:07:18;10.10;60.50
9425;DHT22;17139;52.140;11.636;2023-12-29T13:09:46;10.00;60.90
9425;DHT22;17139;52.140;11.636;2023-12-29T13:12:14;9.90;61.10
9425;DHT22;17139;52.140;11.636;2023-12-29T13:14:42;9.90;61.30
9425;DHT22;17139;52.140;11.636;2023-12-29T13:17:10;9.90;61.30
9425;DHT22;17139;52.140;11.636;2023-12-29T13:19:41;9.80;61.30
9425;DHT22;17139;52.140;11.636;2023-12-29T13:22:11;9.90;61.40
9425;DHT22;17139;52.140;11.636;2023-12-29T13:24:43;9.90;61.40
9425;DHT22;17139;52.140;11.636;2023-12-29T13:27:12;9.90;61.30
9425;DHT22;17139;52.140;11.636;2023-12-29T13:29:41;9.90;61.30
9425;DHT22;17139;52.140;11.636;2023-12-29T13:32:12;9.90;61.20
9425;DHT22;17139;52.140;11.636;2023-12-29T13:34:50;9.90;61.20
9425;DHT22;17139;52.140;11.636;2023-12-29T13:37:24;10.00;61.20
9425;DHT22;17139;52.140;11.636;2023-12-29T13:39:56;9.90;61.10
9425;DHT22;17139;52.140;11.636;2023-12-29T13:42:28;10.30;59.70
9425;DHT22;17139;52.140;11.636;2023-12-29T13:44:57;10.20;60.10
9425;DHT22;17139;52.140;11.636;2023-12-29T13:47:26;10.10;60.50
9425;DHT22;17139;52.140;11.636;2023-12-29T13:49:53;10.90;58.10
9425;DHT22;17139;52.140;11.636;2023-12-29T13:52:22;10.60;58.90
9425;DHT22;17139;52.140;11.636;2023-12-29T13:54:49;10.30;59.60
9425;DHT22;17139;52.140;11.636;2023-12-29T13:57:15;10.10;60.10
9425;DHT22;17139;52.140;11.636;2023-12-29T13:59:42;10.10;60.50
9425;DHT22;17139;52.140;11.636;2023-12-29T14:02:28;10.60;58.60
9425;DHT22;17139;52.140;11.636;2023-12-29T14:05:15;10.70;58.20
9425;DHT22;17139;52.140;11.636;2023-12-29T14:07:52;11.00;57.60
9425;DHT22;17139;52.140;11.636;2023-12-29T14:10:19;11.50;56.20
9425;DHT22;17139;52.140;11.636;2023-12-29T14:12:46;11.00;57.60
9425;DHT22;17139;52.140;11.636;2023-12-29T14:15:14;10.60;58.70
9425;DHT22;17139;52.140;11.636;2023-12-29T14:17:41;10.30;59.30
9425;DHT22;17139;52.140;11.636;2023-12-29T14:20:08;10.20;59.80
9425;DHT22;17139;52.140;11.636;2023-12-29T14:22:35;10.00;60.40
9425;DHT22;17139;52.140;11.636;2023-12-29T14:25:06;9.90;60.50
9425;DHT22;17139;52.140;11.636;2023-12-29T14:27:33;9.80;60.80
9425;DHT22;17139;52.140;11.636;2023-12-29T14:30:00;9.70;61.00
9425;DHT22;17139;52.140;11.636;2023-12-29T14:32:28;9.70;61.00
9425;DHT22;17139;52.140;11.636;2023-12-29T14:34:56;9.70;61.00
9425;DHT22;17139;52.140;11.636;2023-12-29T14:37:23;9.70;61.00
9425;DHT22;17139;52.140;11.636;2023-12-29T14:39:51;9.60;61.10
9425;DHT22;17139;52.140;11.636;2023-12-29T14:42:21;9.60;61.20
9425;DHT22;17139;52.140;11.636;2023-12-29T14:44:48;10.10;59.30
9425;DHT22;17139;52.140;11.636;2023-12-29T14:47:16;9.90;59.70
9425;DHT22;17139;52.140;11.636;2023-12-29T14:49:43;9.70;60.10
9425;DHT22;17139;52.140;11.636;2023-12-29T14:52:11;9.50;60.70
9425;DHT22;17139;52.140;11.636;2023-12-29T14:54:38;9.40;60.90
9425;DHT22;17139;52.140;11.636;2023-12-29T14:57:06;9.30;61.10
9425;DHT22;17139;52.140;11.636;2023-12-29T14:59:34;9.30;61.30
9425;DHT22;17139;52.140;11.636;2023-12-29T15:02:02;9.20;61.40
9425;DHT22;17139;52.140;11.636;2023-12-29T15:04:33;9.10;61.50
9425;DHT22;17139;52.140;11.636;2023-12-29T15:07:00;9.00;61.60
9425;DHT22;17139;52.140;11.636;2023-12-29T15:09:27;9.10;61.80
9425;DHT22;17139;52.140;11.636;2023-12-29T15:11:55;9.00;61.80
9425;DHT22;17139;52.140;11.636;2023-12-29T15:14:22;8.90;61.80
9425;DHT22;17139;52.140;11.636;2023-12-29T15:16:51;8.90;62.00
9425;DHT22;17139;52.140;11.636;2023-12-29T15:19:18;9.30;61.20
9425;DHT22;17139;52.140;11.636;2023-12-29T15:21:45;9.20;61.00
9425;DHT22;17139;52.140;11.636;2023-12-29T15:24:12;9.00;61.40
9425;DHT22;17139;52.140;11.636;2023-12-29T15:26:39;8.90;61.70
9425;DHT22;17139;52.140;11.636;2023-12-29T15:29:06;8.90;61.90
9425;DHT22;17139;52.140;11.636;2023-12-29T15:31:33;8.80;62.10
9425;DHT22;17139;52.140;11.636;2023-12-29T15:34:02;8.70;62.20
9425;DHT22;17139;52.140;11.636;2023-12-29T15:36:29;8.70;62.40
9425;DHT22;17139;52.140;11.636;2023-12-29T15:38:56;8.60;62.30
9425;DHT22;17139;52.140;11.636;2023-12-29T15:41:23;8.60;62.30
9425;DHT22;17139;52.140;11.636;2023-12-29T15:43:50;8.60;62.50
9425;DHT22;17139;52.140;11.636;2023-12-29T15:46:18;8.50;62.50
9425;DHT22;17139;52.140;11.636;2023-12-29T15:48:48;8.50;62.60
9425;DHT22;17139;52.140;11.636;2023-12-29T15:51:16;8.50;62.70
9425;DHT22;17139;52.140;11.636;2023-12-29T15:53:43;9.10;61.60